Strona główna
METAR-TAF:

METAR-TAF

Lotnisko :

Sullivan County International Airport

Monticello, Nowy Jork, Stany Zjednoczone

Szerokość geograficzna: 41-42N, Długość geograficzna: 074-48W, wysokość: 428 m

Aktualna obserwacja pogody

Raport powstał 1 godzina i 7 minut temu, godzina 07:56 UTC
Wiatr 15 kt od zachodnio-północny zachód w porywach dochodzący do 19 kt
Temperatura 2°C
Wilgotność 80%
Ciśnienie 998 hPa
Widzialność: 16.1 km
Zachmurzenie całkowite na wysokości 2000 ft

METAR: KMSV 150756Z AUTO 29015G19KT 10SM OVC020 02/M01 A2946 RMK AO2 RAB10E20 SLP985 P0000 T00171011 FZRANO

czas: 04:03 (09:03 UTC)


TAF: brakujący

Obserwacja i prognoza pogody dla ponad 4000 lotnisk (raport METAR i TAF).

Dostępne stacje oznaczono żółtymi i czerwonymi punktami na mapie.

Najedź kursorem aby zobaczyć nazwę stacji.

Kliknij aby zobaczyć obserwacje i prognozy pogody.

Aby zmienić mapę: kliknij na zielony przycisk z czarnym krzyżykiem, aby powiększyć; na zielony przycisk z myślnikiem, aby pomniejszyć; na zielone strzałki, aby przejść do map sąsiednich.


METAR-TAF: